Pagrindinis puslapis
METAR-TAF:

METAR-TAF

Oro uostai :

Sen Deni, Reunjonas

platuma: 20-53S, ilguma: 055-31E, Aukštis: 21 m

Dabartinis oras

Ataskaita buvo paskelbta 33 minutes, ne 20:00 UTC
Vėjas 4 kt iš Pietų
Temperatūra 18°C
Drėgmė 77%
Slėgis 1019 hPa
Matomumas 10 km arba daugiau
nėra debesų žemiau 1500 m ir nėra kamuolinių lietaus debesų

METAR: FMEE 172000Z AUTO 18004KT CAVOK 18/14 Q1019 NOSIG

Laikas: 00:33 (20:33 UTC)

Prognozė

Ataskaita buvo paskelbta 3 valandos ir 33 minutes, ne 17:00 UTC
Prognozė galioja nuo 17 metu 18 UTC su 18 metu 24 UTC
Vėjas 6 kt iš Pietų/Pietryčių
Matomumas 10 km arba daugiau
Mažai debesys ne aukštis 3000 ft
Tapsmas
nuo 18 metu 04 UTC su 18 metu 05 UTC
Vėjas 15 kt iš Rytų
Tapsmas
nuo 18 metu 14 UTC su 18 metu 16 UTC
Vėjas 5 kt iš Pietų/Pietryčių

TAF: FMEE 171700Z 1718/1824 16006KT 9999 FEW030 BECMG 1804/1805 08015KT BECMG 1814/1816 16005KT

Orai ataskaitas ir orų prognozės (METAR, TAF).

turimą stotys yra geltonos ir raudonos taškus žemėlapyje.

Perkelti pele per norėdami pamatyti stoties vardą.

Tada spustelėkite, norėdami matyti oro stebėjimo ir prognozės.

Norėdami pakeisti žemėlapį: spustelėkite ant žalios mygtukų su juodo kryžiaus žemyn,; žalią mygtuką su brūkšneliu, jei norite nutolinti; arba žalių rodyklių gretimoms žemėlapius.


METAR-TAF: